createdAt,value
2017-08-08T00:00:20.122Z,9.80
2017-08-08T00:02:46.504Z,10.23
2017-08-08T00:05:13.184Z,9.20
2017-08-08T00:07:40.303Z,9.93
2017-08-08T00:10:06.651Z,9.27
2017-08-08T00:12:33.116Z,10.20
2017-08-08T00:14:59.472Z,10.30
2017-08-08T00:17:27.483Z,9.60
2017-08-08T00:19:53.861Z,10.23
2017-08-08T00:22:20.271Z,9.73
2017-08-08T00:24:46.602Z,9.30
2017-08-08T00:27:13.069Z,10.00
2017-08-08T00:29:39.414Z,9.47
2017-08-08T00:32:06.180Z,10.10
2017-08-08T00:34:33.230Z,10.07
2017-08-08T00:36:59.657Z,9.70
2017-08-08T00:39:27.385Z,10.67
2017-08-08T00:41:53.771Z,10.33
2017-08-08T00:44:20.134Z,11.03
2017-08-08T00:46:46.521Z,11.00
2017-08-08T00:49:12.894Z,11.00
2017-08-08T00:51:39.244Z,10.50
2017-08-08T00:54:05.660Z,10.60
2017-08-08T00:56:32.017Z,10.37
2017-08-08T00:58:59.464Z,10.90
2017-08-08T01:01:25.825Z,11.07
2017-08-08T01:03:52.208Z,10.30
2017-08-08T01:06:18.560Z,9.97
2017-08-08T01:08:45.169Z,9.87
2017-08-08T01:11:12.348Z,11.13
2017-08-08T01:13:39.461Z,11.13
2017-08-08T01:16:05.798Z,12.50
2017-08-08T01:18:32.285Z,10.77
2017-08-08T01:20:58.644Z,10.37
2017-08-08T01:23:28.443Z,12.10
2017-08-08T01:25:55.124Z,13.17
2017-08-08T01:28:22.214Z,11.60
2017-08-08T01:30:48.550Z,11.37
2017-08-08T01:33:14.912Z,13.03
2017-08-08T01:35:41.263Z,12.30
2017-08-08T01:38:07.655Z,12.77
2017-08-08T01:40:34.067Z,12.37
2017-08-08T01:43:00.492Z,12.00
2017-08-08T01:45:26.930Z,12.70
2017-08-08T01:47:53.327Z,13.10
2017-08-08T01:50:20.490Z,13.87
2017-08-08T01:52:47.194Z,14.40
2017-08-08T01:55:13.634Z,12.83
2017-08-08T01:57:40.789Z,12.07
2017-08-08T02:00:07.291Z,12.90
2017-08-08T02:02:33.669Z,12.50
2017-08-08T02:05:00.096Z,13.70
2017-08-08T02:07:26.479Z,13.33
2017-08-08T02:09:52.864Z,13.97
2017-08-08T02:12:19.233Z,14.10
2017-08-08T02:14:45.905Z,13.37
2017-08-08T02:17:13.064Z,12.07
2017-08-08T02:19:39.421Z,14.43
2017-08-08T02:22:05.873Z,12.83
2017-08-08T02:24:32.303Z,13.60
2017-08-08T02:26:58.701Z,13.97
2017-08-08T02:29:25.165Z,12.67
2017-08-08T02:31:51.571Z,13.00
2017-08-08T02:34:17.934Z,13.40
2017-08-08T02:36:44.700Z,12.17
2017-08-08T02:39:11.075Z,11.93
2017-08-08T02:41:37.405Z,14.10
2017-08-08T02:44:03.816Z,13.10
2017-08-08T02:46:30.231Z,14.13
2017-08-08T02:48:56.591Z,12.73
2017-08-08T02:51:22.976Z,14.43
2017-08-08T02:53:49.628Z,14.73
2017-08-08T02:56:16.760Z,13.53
2017-08-08T02:58:43.094Z,14.37
2017-08-08T03:01:09.575Z,13.10
2017-08-08T03:03:35.919Z,14.30
2017-08-08T03:06:02.316Z,13.07
2017-08-08T03:08:28.767Z,13.47
2017-08-08T03:10:55.462Z,13.50
2017-08-08T03:13:22.587Z,12.23
2017-08-08T03:15:48.961Z,13.57
2017-08-08T03:18:15.396Z,14.30
2017-08-08T03:20:41.826Z,13.80
2017-08-08T03:23:08.215Z,14.30
2017-08-08T03:25:34.596Z,13.20
2017-08-08T03:28:01.314Z,13.30
2017-08-08T03:30:27.657Z,12.17
2017-08-08T03:32:54.043Z,14.00
2017-08-08T03:35:20.446Z,14.30
2017-08-08T03:37:46.794Z,11.67
2017-08-08T03:40:13.196Z,12.27
2017-08-08T03:42:39.561Z,12.93
2017-08-08T03:45:05.906Z,12.73
2017-08-08T03:47:33.013Z,12.17
2017-08-08T03:49:59.688Z,13.13
2017-08-08T03:52:26.845Z,13.90
2017-08-08T03:54:53.206Z,12.93
2017-08-08T03:57:19.653Z,14.30
2017-08-08T03:59:46.092Z,14.30
2017-08-08T04:02:12.496Z,14.20
2017-08-08T04:04:38.862Z,12.50
2017-08-08T04:07:05.526Z,12.93
2017-08-08T04:09:31.862Z,12.90
2017-08-08T04:11:58.222Z,13.33
2017-08-08T04:14:24.595Z,11.93
2017-08-08T04:16:50.955Z,14.13
2017-08-08T04:19:17.319Z,14.10
2017-08-08T04:21:43.724Z,13.80
2017-08-08T04:24:10.082Z,12.97
2017-08-08T04:26:36.463Z,14.00
2017-08-08T04:29:03.614Z,13.90
2017-08-08T04:31:29.956Z,15.20
2017-08-08T04:33:56.312Z,14.47
2017-08-08T04:36:22.733Z,13.80
2017-08-08T04:38:49.089Z,13.97
2017-08-08T04:41:15.543Z,15.50
2017-08-08T04:43:41.927Z,13.50
2017-08-08T04:46:08.310Z,15.17
2017-08-08T04:48:34.686Z,14.10
2017-08-08T04:51:01.086Z,14.70
2017-08-08T04:53:28.194Z,12.57
2017-08-08T04:55:54.521Z,13.60
2017-08-08T04:58:20.938Z,13.30
2017-08-08T05:00:47.339Z,14.03
2017-08-08T05:03:14.066Z,13.47
2017-08-08T05:05:40.420Z,13.43
2017-08-08T05:08:06.750Z,14.10
2017-08-08T05:10:33.122Z,13.90
2017-08-08T05:12:59.512Z,12.87
2017-08-08T05:15:25.905Z,13.70
2017-08-08T05:17:52.259Z,14.47
2017-08-08T05:20:18.687Z,15.10
2017-08-08T05:22:45.020Z,12.50
2017-08-08T05:25:11.355Z,13.60
2017-08-08T05:27:37.750Z,13.30
2017-08-08T05:30:04.105Z,14.27
2017-08-08T05:32:30.465Z,12.93
2017-08-08T05:34:56.819Z,13.23
2017-08-08T05:37:23.173Z,14.00
2017-08-08T05:39:49.505Z,12.40
2017-08-08T05:42:17.439Z,12.30
2017-08-08T05:44:44.802Z,12.40
2017-08-08T05:47:11.194Z,13.53
2017-08-08T05:49:37.548Z,14.40
2017-08-08T05:52:03.913Z,12.97
2017-08-08T05:54:31.029Z,13.20
2017-08-08T05:57:06.584Z,11.83
2017-08-08T05:59:33.096Z,10.60
2017-08-08T06:01:59.472Z,11.93
2017-08-08T06:04:25.880Z,12.37
2017-08-08T06:06:52.240Z,14.47
2017-08-08T06:09:18.977Z,13.47
2017-08-08T06:11:45.371Z,12.10
2017-08-08T06:14:11.776Z,12.60
2017-08-08T06:16:38.167Z,12.50
2017-08-08T06:19:05.285Z,13.30
2017-08-08T06:21:31.692Z,12.27
2017-08-08T06:23:58.181Z,12.43
2017-08-08T06:26:25.560Z,12.50
2017-08-08T06:28:51.963Z,11.63
2017-08-08T06:31:18.349Z,10.50
2017-08-08T06:33:44.722Z,11.40
2017-08-08T06:36:11.860Z,10.90
2017-08-08T06:38:38.969Z,11.27
2017-08-08T06:41:05.356Z,9.40
2017-08-08T06:43:32.089Z,9.20
2017-08-08T06:45:58.465Z,8.40
2017-08-08T06:48:24.794Z,9.70
2017-08-08T06:50:51.190Z,8.10
2017-08-08T06:53:17.546Z,7.77
2017-08-08T06:55:43.901Z,7.37
2017-08-08T06:58:10.279Z,8.03
2017-08-08T07:00:36.769Z,6.57
2017-08-08T07:03:03.122Z,7.07
2017-08-08T07:05:30.521Z,6.07
2017-08-08T07:07:56.929Z,6.67
2017-08-08T07:10:23.263Z,6.17
2017-08-08T07:12:49.639Z,6.03
2017-08-08T07:15:16.022Z,6.33
2017-08-08T07:17:42.438Z,7.07
2017-08-08T07:20:09.532Z,6.67
2017-08-08T07:22:35.891Z,6.07
2017-08-08T07:25:02.231Z,5.83
2017-08-08T07:27:29.049Z,5.40
2017-08-08T07:29:55.410Z,5.90
2017-08-08T07:32:22.499Z,5.17
2017-08-08T07:34:48.901Z,4.43
2017-08-08T07:37:15.281Z,5.30
2017-08-08T07:39:41.620Z,4.83
2017-08-08T07:42:07.971Z,4.90
2017-08-08T07:44:35.372Z,4.80
2017-08-08T07:47:01.732Z,4.10
2017-08-08T07:49:28.759Z,4.60
2017-08-08T07:51:55.125Z,4.53
2017-08-08T07:54:21.506Z,4.53
2017-08-08T07:56:47.895Z,5.20
2017-08-08T07:59:14.336Z,5.43
2017-08-08T08:01:40.708Z,5.30
2017-08-08T08:04:07.077Z,4.30
2017-08-08T08:06:34.519Z,4.80
2017-08-08T08:09:00.851Z,5.03
2017-08-08T08:11:27.261Z,4.60
2017-08-08T08:13:53.615Z,4.30
2017-08-08T08:16:20.716Z,4.73
2017-08-08T08:18:47.066Z,4.37
2017-08-08T08:21:13.400Z,4.90
2017-08-08T08:23:40.284Z,4.50
2017-08-08T08:26:06.674Z,4.60
2017-08-08T08:28:33.081Z,4.20
2017-08-08T08:30:59.461Z,3.77
2017-08-08T08:33:26.557Z,4.30
2017-08-08T08:35:52.923Z,5.37
2017-08-08T08:38:19.277Z,4.67
2017-08-08T08:40:45.941Z,4.70
2017-08-08T08:43:12.301Z,5.00
2017-08-08T08:45:38.667Z,4.43
2017-08-08T08:48:05.095Z,5.00
2017-08-08T08:50:32.204Z,4.53
2017-08-08T08:52:58.596Z,4.67
2017-08-08T08:55:25.007Z,4.87
2017-08-08T08:57:51.429Z,5.40
2017-08-08T09:00:18.725Z,4.80
2017-08-08T09:02:45.448Z,4.73
2017-08-08T09:05:11.878Z,5.73
2017-08-08T09:10:35.472Z,5.40
2017-08-08T09:13:02.091Z,5.70
2017-08-08T09:15:28.463Z,5.50
2017-08-08T09:17:54.850Z,5.40
2017-08-08T09:20:21.264Z,5.40
2017-08-08T09:22:47.695Z,4.80
2017-08-08T09:25:14.920Z,5.27
2017-08-08T09:27:41.597Z,5.33
2017-08-08T09:30:07.995Z,5.30
2017-08-08T09:32:34.306Z,4.93
2017-08-08T09:35:00.677Z,5.50
2017-08-08T09:37:27.064Z,5.17
2017-08-08T09:39:53.701Z,4.60
2017-08-08T09:42:20.837Z,5.33
2017-08-08T09:44:47.205Z,5.00
2017-08-08T09:47:13.577Z,5.23
2017-08-08T09:49:39.950Z,4.57
2017-08-08T09:52:06.426Z,4.67
2017-08-08T09:54:32.775Z,4.53
2017-08-08T09:56:59.141Z,4.47
2017-08-08T09:59:25.636Z,4.30
2017-08-08T10:01:51.991Z,3.67
2017-08-08T10:04:18.356Z,4.70
2017-08-08T10:06:44.737Z,3.90
2017-08-08T10:09:11.124Z,5.17
2017-08-08T10:11:38.253Z,4.57
2017-08-08T10:14:04.952Z,3.67
2017-08-08T10:16:31.301Z,3.50
2017-08-08T10:18:57.712Z,3.80
2017-08-08T10:21:24.063Z,3.93
2017-08-08T10:23:50.482Z,3.53
2017-08-08T10:26:16.860Z,4.00
2017-08-08T10:28:43.241Z,4.33
2017-08-08T10:31:10.097Z,3.90
2017-08-08T10:33:36.524Z,3.93
2017-08-08T10:36:02.872Z,4.03
2017-08-08T10:38:29.281Z,3.43
2017-08-08T10:40:55.630Z,4.40
2017-08-08T10:43:21.993Z,3.70
2017-08-08T10:45:48.368Z,4.03
2017-08-08T10:48:14.751Z,3.90
2017-08-08T10:50:41.143Z,4.07
2017-08-08T10:53:07.498Z,4.07
2017-08-08T10:55:33.837Z,3.90
2017-08-08T10:58:00.521Z,4.57
2017-08-08T11:00:26.890Z,4.37
2017-08-08T11:02:53.980Z,3.70
2017-08-08T11:05:20.389Z,3.73
2017-08-08T11:07:46.767Z,4.00
2017-08-08T11:10:13.145Z,3.80
2017-08-08T11:12:39.507Z,4.33
2017-08-08T11:15:05.871Z,3.50
2017-08-08T11:17:32.282Z,3.30
2017-08-08T11:19:58.707Z,3.43
2017-08-08T11:22:25.087Z,3.67
2017-08-08T11:24:51.804Z,3.50
2017-08-08T11:27:18.192Z,3.20
2017-08-08T11:29:44.557Z,3.43
2017-08-08T11:32:11.656Z,2.80
2017-08-08T11:34:38.056Z,3.27
2017-08-08T11:37:04.444Z,3.70
2017-08-08T11:39:30.834Z,2.80
2017-08-08T11:41:57.231Z,3.03
2017-08-08T11:44:23.597Z,3.00
2017-08-08T11:46:49.970Z,2.63
2017-08-08T11:49:16.330Z,2.80
2017-08-08T11:51:43.772Z,2.67
2017-08-08T11:54:10.168Z,2.20
2017-08-08T11:56:36.528Z,2.63
2017-08-08T11:59:02.900Z,2.80
2017-08-08T12:01:29.339Z,2.23
2017-08-08T12:03:55.703Z,2.80
2017-08-08T12:06:22.065Z,2.87
2017-08-08T12:08:48.449Z,2.67
2017-08-08T12:11:14.802Z,2.87
2017-08-08T12:13:41.219Z,2.57
2017-08-08T12:16:07.631Z,2.93
2017-08-08T12:18:34.295Z,2.60
2017-08-08T12:21:00.666Z,3.27
2017-08-08T12:23:27.060Z,2.33
2017-08-08T12:25:53.447Z,2.73
2017-08-08T12:28:19.785Z,2.63
2017-08-08T12:30:46.172Z,2.30
2017-08-08T12:33:12.563Z,2.53
2017-08-08T12:35:38.963Z,3.90
2017-08-08T12:38:05.353Z,3.40
2017-08-08T12:40:32.107Z,3.00
2017-08-08T12:42:59.193Z,3.40
2017-08-08T12:45:25.590Z,4.10
2017-08-08T12:47:51.967Z,3.70
2017-08-08T12:50:18.362Z,3.87
2017-08-08T12:52:44.804Z,3.90
2017-08-08T12:55:11.201Z,3.47
2017-08-08T12:57:37.921Z,3.67
2017-08-08T13:00:04.415Z,3.80
2017-08-08T13:02:30.788Z,3.60
2017-08-08T13:04:57.163Z,3.70
2017-08-08T13:07:23.509Z,3.87
2017-08-08T13:09:49.883Z,3.60
2017-08-08T13:12:16.264Z,3.73
2017-08-08T13:14:42.954Z,3.83
2017-08-08T13:17:09.358Z,4.13
2017-08-08T13:19:35.691Z,3.40
2017-08-08T13:22:02.089Z,3.40
2017-08-08T13:24:28.484Z,3.70
2017-08-08T13:26:55.669Z,4.00
2017-08-08T13:29:22.092Z,3.90
2017-08-08T13:31:48.439Z,4.23
2017-08-08T13:34:14.822Z,4.20
2017-08-08T13:36:42.357Z,3.90
2017-08-08T13:39:08.689Z,4.40
2017-08-08T13:41:35.075Z,3.77
2017-08-08T13:44:01.488Z,3.60
2017-08-08T13:46:27.802Z,4.13
2017-08-08T13:48:54.202Z,4.13
2017-08-08T13:51:20.561Z,4.60
2017-08-08T13:53:46.925Z,4.23
2017-08-08T13:56:13.293Z,4.10
2017-08-08T13:58:40.030Z,3.43
2017-08-08T14:01:06.534Z,4.17
2017-08-08T14:03:32.943Z,4.67
2017-08-08T14:05:59.329Z,3.90
2017-08-08T14:08:25.769Z,4.07
2017-08-08T14:10:52.169Z,4.57
2017-08-08T14:13:19.275Z,5.10
2017-08-08T14:15:45.687Z,4.23
2017-08-08T14:18:12.856Z,4.50
2017-08-08T14:20:39.228Z,4.30
2017-08-08T14:23:05.638Z,4.03
2017-08-08T14:25:32.046Z,4.97
2017-08-08T14:27:58.402Z,3.77
2017-08-08T14:30:24.805Z,3.90
2017-08-08T14:32:51.441Z,3.67
2017-08-08T14:35:17.837Z,4.80
2017-08-08T14:37:44.202Z,5.00
2017-08-08T14:40:10.579Z,4.50
2017-08-08T14:42:37.013Z,4.40
2017-08-08T14:45:03.402Z,4.77
2017-08-08T14:47:29.772Z,5.13
2017-08-08T14:49:56.200Z,5.20
2017-08-08T14:52:22.552Z,5.17
2017-08-08T14:54:49.644Z,5.00
2017-08-08T14:57:16.025Z,4.33
2017-08-08T14:59:42.523Z,5.70
2017-08-08T15:02:08.894Z,4.87
2017-08-08T15:04:35.990Z,4.90
2017-08-08T15:07:02.441Z,5.63
2017-08-08T15:09:28.783Z,5.33
2017-08-08T15:11:55.421Z,4.97
2017-08-08T15:14:21.847Z,5.87
2017-08-08T15:16:48.503Z,5.70
2017-08-08T15:19:14.922Z,5.50
2017-08-08T15:21:41.305Z,5.30
2017-08-08T15:24:07.702Z,5.90
2017-08-08T15:26:34.145Z,5.83
2017-08-08T15:29:00.514Z,5.87
2017-08-08T15:31:27.199Z,5.37
2017-08-08T15:33:53.588Z,5.47
2017-08-08T15:36:19.987Z,5.40
2017-08-08T15:38:46.402Z,5.87
2017-08-08T15:41:12.816Z,5.83
2017-08-08T15:43:39.549Z,5.80
2017-08-08T15:46:06.022Z,5.60
2017-08-08T15:48:32.402Z,6.53
2017-08-08T15:50:59.544Z,6.20
2017-08-08T15:53:26.009Z,6.43
2017-08-08T15:55:52.479Z,6.00
2017-08-08T15:58:18.878Z,6.17
2017-08-08T16:00:45.338Z,6.70
2017-08-08T16:03:11.752Z,6.13
2017-08-08T16:05:38.215Z,7.10
2017-08-08T16:08:04.556Z,6.53
2017-08-08T16:10:31.285Z,6.27
2017-08-08T16:12:57.688Z,7.50
2017-08-08T16:15:24.089Z,8.93
2017-08-08T16:17:51.199Z,8.60
2017-08-08T16:20:17.709Z,8.30
2017-08-08T16:22:44.108Z,9.57
2017-08-08T16:25:10.616Z,9.40
2017-08-08T16:27:37.277Z,11.13
2017-08-08T16:30:04.383Z,9.27
2017-08-08T16:32:31.048Z,9.60
2017-08-08T16:34:57.593Z,10.00
2017-08-08T16:37:24.013Z,9.53
2017-08-08T16:39:50.470Z,9.30
2017-08-08T16:42:16.935Z,10.60
2017-08-08T16:44:43.720Z,10.83
2017-08-08T16:47:10.152Z,8.57
2017-08-08T16:49:36.569Z,8.10
2017-08-08T16:52:03.755Z,8.40
2017-08-08T16:54:30.176Z,9.67
2017-08-08T16:56:57.798Z,8.10
2017-08-08T16:59:25.053Z,7.70
2017-08-08T17:01:52.513Z,7.90
2017-08-08T17:04:18.921Z,7.60
2017-08-08T17:06:45.391Z,7.40
2017-08-08T17:09:12.534Z,8.13
2017-08-08T17:11:39.014Z,8.17
2017-08-08T17:14:05.434Z,8.57
2017-08-08T17:16:31.870Z,8.73
2017-08-08T17:18:59.516Z,8.80
2017-08-08T17:21:25.979Z,7.47
2017-08-08T17:23:52.389Z,9.00
2017-08-08T17:26:19.030Z,7.73
2017-08-08T17:28:45.456Z,7.00
2017-08-08T17:31:11.966Z,7.93
2017-08-08T17:33:38.438Z,7.50
2017-08-08T17:36:05.288Z,6.37
2017-08-08T17:38:31.677Z,5.60
2017-08-08T17:40:58.100Z,6.03
2017-08-08T17:43:25.314Z,6.10
2017-08-08T17:45:51.765Z,5.63
2017-08-08T17:48:18.902Z,5.43
2017-08-08T17:50:45.246Z,5.77
2017-08-08T17:53:13.760Z,5.13
2017-08-08T17:55:40.153Z,5.27
2017-08-08T17:58:06.657Z,4.97
2017-08-08T18:00:33.120Z,4.60
2017-08-08T18:02:59.548Z,5.50
2017-08-08T18:05:26.003Z,4.90
2017-08-08T18:07:52.556Z,5.93
2017-08-08T18:10:19.224Z,4.07
2017-08-08T18:12:45.617Z,4.13
2017-08-08T18:15:12.033Z,4.07
2017-08-08T18:20:12.351Z,3.13
2017-08-08T18:22:39.569Z,2.77
2017-08-08T18:25:05.990Z,2.60
2017-08-08T18:27:32.741Z,1.93
2017-08-08T18:29:59.173Z,2.10
2017-08-08T18:32:25.599Z,1.90
2017-08-08T18:34:52.090Z,2.03
2017-08-08T18:37:18.519Z,2.00
2017-08-08T18:39:45.004Z,2.20
2017-08-08T18:42:11.373Z,2.03
2017-08-08T18:44:38.105Z,1.97
2017-08-08T18:47:05.310Z,2.13
2017-08-08T18:49:31.789Z,2.30
2017-08-08T18:51:58.264Z,2.53
2017-08-08T18:54:24.822Z,1.73
2017-08-08T18:56:51.277Z,2.27
2017-08-08T18:59:18.558Z,2.40
2017-08-08T19:01:45.097Z,1.90
2017-08-08T19:04:11.667Z,2.20
2017-08-08T19:06:39.271Z,2.80
2017-08-08T19:09:05.777Z,2.27
2017-08-08T19:11:32.251Z,2.43
2017-08-08T19:13:58.649Z,2.87
2017-08-08T19:16:25.961Z,2.17
2017-08-08T19:18:52.500Z,2.30
2017-08-08T19:21:19.101Z,1.80
2017-08-08T19:23:45.552Z,1.63
2017-08-08T19:26:12.050Z,1.63
2017-08-08T19:28:38.496Z,2.20
2017-08-08T19:31:04.965Z,2.17
2017-08-08T19:33:31.398Z,2.37
2017-08-08T19:35:57.888Z,2.10
2017-08-08T19:38:24.252Z,1.83
2017-08-08T19:40:50.694Z,2.33
2017-08-08T19:43:17.455Z,2.00
2017-08-08T19:45:44.945Z,2.07
2017-08-08T19:48:11.333Z,2.17
2017-08-08T19:50:38.603Z,2.20
2017-08-08T19:53:05.073Z,1.70
2017-08-08T19:55:31.568Z,1.80
2017-08-08T19:57:58.076Z,1.90
2017-08-08T20:00:24.650Z,2.13
2017-08-08T20:02:51.159Z,1.90
2017-08-08T20:05:18.398Z,2.60
2017-08-08T20:07:45.079Z,2.73
2017-08-08T20:10:18.466Z,2.00
2017-08-08T20:12:45.344Z,2.60
2017-08-08T20:15:11.781Z,2.53
2017-08-08T20:17:38.372Z,3.23
2017-08-08T20:20:04.980Z,4.03
2017-08-08T20:22:32.245Z,3.90
2017-08-08T20:24:59.468Z,4.37
2017-08-08T20:27:25.958Z,4.90
2017-08-08T20:29:52.792Z,4.30
2017-08-08T20:32:19.223Z,5.57
2017-08-08T20:34:45.675Z,6.07
2017-08-08T20:37:12.060Z,5.60
2017-08-08T20:39:38.451Z,4.37
2017-08-08T20:42:04.894Z,4.30
2017-08-08T20:44:31.405Z,3.20
2017-08-08T20:46:57.824Z,3.10
2017-08-08T20:49:24.229Z,3.70
2017-08-08T20:51:50.947Z,2.70
2017-08-08T20:54:17.340Z,2.50
2017-08-08T20:56:43.738Z,2.93
2017-08-08T20:59:10.260Z,2.87
2017-08-08T21:01:36.750Z,3.30
2017-08-08T21:04:03.168Z,2.70
2017-08-08T21:06:29.577Z,2.60
2017-08-08T21:08:56.383Z,2.40
2017-08-08T21:11:23.527Z,3.17
2017-08-08T21:13:50.636Z,2.53
2017-08-08T21:16:17.068Z,2.60
2017-08-08T21:18:43.503Z,2.23
2017-08-08T21:21:09.868Z,3.10
2017-08-08T21:23:36.275Z,2.80
2017-08-08T21:26:02.744Z,2.93
2017-08-08T21:28:29.140Z,2.67
2017-08-08T21:30:55.579Z,2.70
2017-08-08T21:33:21.999Z,1.97
2017-08-08T21:35:48.783Z,2.80
2017-08-08T21:38:16.093Z,1.70
2017-08-08T21:40:42.450Z,2.00
2017-08-08T21:43:09.594Z,2.00
2017-08-08T21:45:36.680Z,1.70
2017-08-08T21:48:03.101Z,2.10
2017-08-08T21:50:29.487Z,2.00
2017-08-08T21:52:55.898Z,2.10
2017-08-08T21:55:22.296Z,2.00
2017-08-08T21:57:48.677Z,2.53
2017-08-08T22:00:15.052Z,2.07
2017-08-08T22:02:41.701Z,1.80
2017-08-08T22:05:08.207Z,2.10
2017-08-08T22:07:34.586Z,2.20
2017-08-08T22:10:01.112Z,1.63
2017-08-08T22:12:27.507Z,1.47
2017-08-08T22:14:53.987Z,1.93
2017-08-08T22:17:20.389Z,2.40
2017-08-08T22:19:46.804Z,2.03
2017-08-08T22:22:13.229Z,2.10
2017-08-08T22:24:39.919Z,2.40
2017-08-08T22:27:06.253Z,2.07
2017-08-08T22:29:32.633Z,2.03
2017-08-08T22:31:59.032Z,1.87
2017-08-08T22:34:26.151Z,2.50
2017-08-08T22:37:00.278Z,1.90
2017-08-08T22:39:26.665Z,1.40
2017-08-08T22:41:53.026Z,1.43
2017-08-08T22:44:19.361Z,2.33
2017-08-08T22:46:46.108Z,1.70
2017-08-08T22:49:12.440Z,1.50
2017-08-08T22:51:38.825Z,1.30
2017-08-08T22:54:05.245Z,1.70
2017-08-08T22:56:31.604Z,1.60
2017-08-08T22:58:57.959Z,1.70
2017-08-08T23:01:24.684Z,1.50
2017-08-08T23:03:51.080Z,1.57
2017-08-08T23:06:17.413Z,1.50
2017-08-08T23:08:44.096Z,1.87
2017-08-08T23:11:10.434Z,1.77
2017-08-08T23:13:36.774Z,1.80
2017-08-08T23:16:03.900Z,1.60
2017-08-08T23:18:30.267Z,1.80
2017-08-08T23:20:56.657Z,1.93
2017-08-08T23:23:23.063Z,1.60
2017-08-08T23:25:49.747Z,1.70
2017-08-08T23:28:16.859Z,2.53
2017-08-08T23:30:43.222Z,2.20
2017-08-08T23:33:09.644Z,1.60
2017-08-08T23:35:36.720Z,2.00
2017-08-08T23:38:03.118Z,1.77
2017-08-08T23:40:30.234Z,1.43
2017-08-08T23:42:56.578Z,1.87
2017-08-08T23:45:22.951Z,1.40
2017-08-08T23:47:49.403Z,1.70
2017-08-08T23:50:15.789Z,1.77
2017-08-08T23:52:42.186Z,1.20
2017-08-08T23:55:08.543Z,2.10
2017-08-08T23:57:34.929Z,1.90
